createdAt,value
2023-05-09T00:01:22.203Z,17.55
2023-05-09T00:04:26.582Z,16.83
2023-05-09T00:07:29.891Z,13.52
2023-05-09T00:10:33.079Z,17.17
2023-05-09T00:13:36.496Z,13.63
2023-05-09T00:16:40.196Z,18.65
2023-05-09T00:19:44.253Z,12.23
2023-05-09T00:22:47.439Z,15.27
2023-05-09T00:25:50.637Z,16.23
2023-05-09T00:28:53.991Z,11.77
2023-05-09T00:31:57.504Z,17.35
2023-05-09T00:35:00.917Z,13.30
2023-05-09T00:38:04.215Z,14.20
2023-05-09T00:41:07.825Z,12.07
2023-05-09T00:44:11.709Z,14.70
2023-05-09T00:47:14.897Z,13.80
2023-05-09T00:50:18.716Z,14.53
2023-05-09T00:53:22.240Z,14.30
2023-05-09T00:56:25.567Z,12.60
2023-05-09T00:59:29.175Z,14.75
2023-05-09T01:02:33.198Z,15.90
2023-05-09T01:05:56.213Z,12.88
2023-05-09T01:09:20.522Z,12.50
2023-05-09T01:12:31.391Z,11.17
2023-05-09T01:15:40.313Z,12.32
2023-05-09T01:18:52.593Z,15.00
2023-05-09T01:21:57.859Z,13.40
2023-05-09T01:25:21.615Z,13.98
2023-05-09T01:28:30.501Z,14.00
2023-05-09T01:31:36.560Z,15.27
2023-05-09T01:34:42.056Z,15.00
2023-05-09T01:37:51.228Z,15.43
2023-05-09T01:40:57.621Z,13.48
2023-05-09T01:44:03.895Z,14.65
2023-05-09T01:47:08.480Z,14.90
2023-05-09T01:50:13.476Z,15.15
2023-05-09T01:53:18.716Z,11.70
2023-05-09T01:56:23.292Z,11.50
2023-05-09T02:02:30.514Z,13.13
2023-05-09T02:05:35.745Z,16.17
2023-05-09T02:08:39.711Z,15.52
2023-05-09T02:11:43.002Z,14.98
2023-05-09T02:14:46.531Z,16.63
2023-05-09T02:17:49.956Z,13.32
2023-05-09T02:20:53.349Z,10.43
2023-05-09T02:23:56.538Z,13.50
2023-05-09T02:27:00.655Z,13.68
2023-05-09T02:30:08.151Z,11.75
2023-05-09T02:33:13.652Z,15.25
2023-05-09T02:36:19.806Z,17.80
2023-05-09T02:39:23.567Z,15.02
2023-05-09T02:42:29.818Z,11.97
2023-05-09T02:45:33.285Z,19.25
2023-05-09T02:48:37.129Z,13.75
2023-05-09T02:51:40.329Z,13.53
2023-05-09T02:54:43.628Z,18.33
2023-05-09T02:57:46.912Z,12.02
2023-05-09T03:00:50.174Z,12.68
2023-05-09T03:03:53.422Z,18.63
2023-05-09T03:10:06.850Z,15.25
2023-05-09T03:13:10.744Z,18.03
2023-05-09T03:16:16.380Z,14.90
2023-05-09T03:19:21.049Z,14.88
2023-05-09T03:22:24.262Z,17.67
2023-05-09T03:25:33.138Z,18.88
2023-05-09T03:28:36.367Z,19.17
2023-05-09T03:31:41.506Z,17.88
2023-05-09T03:34:44.829Z,18.27
2023-05-09T03:37:48.220Z,28.10
2023-05-09T03:40:52.167Z,15.60
2023-05-09T03:43:55.613Z,18.27
2023-05-09T03:46:58.887Z,19.20
2023-05-09T03:50:03.295Z,15.10
2023-05-09T03:53:07.217Z,15.70
2023-05-09T03:56:11.990Z,13.50
2023-05-09T03:59:22.085Z,17.45
2023-05-09T04:02:25.440Z,20.50
2023-05-09T04:05:28.924Z,18.08
2023-05-09T04:08:33.291Z,19.73
2023-05-09T04:11:38.514Z,17.35
2023-05-09T04:14:48.909Z,18.88
2023-05-09T04:17:53.291Z,32.58
2023-05-09T04:21:00.339Z,17.60
2023-05-09T04:24:03.778Z,20.00
2023-05-09T04:27:12.962Z,19.90
2023-05-09T04:30:17.518Z,18.50
2023-05-09T04:33:22.059Z,22.90
2023-05-09T04:36:28.329Z,22.80
2023-05-09T04:39:34.094Z,31.02
2023-05-09T04:42:46.481Z,24.67
2023-05-09T04:45:50.142Z,22.13
2023-05-09T04:48:53.297Z,22.00
2023-05-09T04:51:56.868Z,24.05
2023-05-09T04:55:00.811Z,23.02
2023-05-09T04:58:10.303Z,26.88
2023-05-09T05:01:13.763Z,23.25
2023-05-09T05:04:17.220Z,24.23
2023-05-09T05:07:20.751Z,20.38
2023-05-09T05:10:24.068Z,19.35
2023-05-09T05:13:34.775Z,25.15
2023-05-09T05:16:38.856Z,21.90
2023-05-09T05:19:42.242Z,28.65
2023-05-09T05:22:45.805Z,23.35
2023-05-09T05:25:49.720Z,21.42
2023-05-09T05:28:56.166Z,22.60
2023-05-09T05:32:00.937Z,20.35
2023-05-09T05:35:05.611Z,21.80
2023-05-09T05:38:12.014Z,25.00
2023-05-09T05:41:16.349Z,24.98
2023-05-09T05:44:20.811Z,25.48
2023-05-09T05:47:24.152Z,23.90
2023-05-09T05:50:28.239Z,22.55
2023-05-09T05:53:32.786Z,22.25
2023-05-09T05:56:36.928Z,21.88
2023-05-09T05:59:40.531Z,24.30
2023-05-09T06:02:45.794Z,20.23
2023-05-09T06:05:57.141Z,24.55
2023-05-09T06:09:00.400Z,24.55
2023-05-09T06:12:03.690Z,20.45
2023-05-09T06:15:07.665Z,24.30
2023-05-09T06:18:14.845Z,24.70
2023-05-09T06:21:18.142Z,23.95
2023-05-09T06:24:34.658Z,25.83
2023-05-09T06:27:39.882Z,24.63
2023-05-09T06:30:43.115Z,29.73
2023-05-09T06:33:46.332Z,24.95
2023-05-09T06:36:49.537Z,27.08
2023-05-09T06:39:52.706Z,22.80
2023-05-09T06:42:55.853Z,28.02
2023-05-09T06:45:59.052Z,22.88
2023-05-09T06:49:06.779Z,22.88
2023-05-09T06:52:10.231Z,25.13
2023-05-09T06:55:13.618Z,33.10
2023-05-09T06:58:17.161Z,25.55
2023-05-09T07:01:20.475Z,26.80
2023-05-09T07:04:23.676Z,26.70
2023-05-09T07:07:26.898Z,22.95
2023-05-09T07:10:30.086Z,27.02
2023-05-09T07:13:33.297Z,24.35
2023-05-09T07:16:37.617Z,27.08
2023-05-09T07:19:42.016Z,26.42
2023-05-09T07:22:45.401Z,26.48
2023-05-09T07:25:48.786Z,29.77
2023-05-09T07:28:52.022Z,23.80
2023-05-09T07:31:55.311Z,28.23
2023-05-09T07:34:58.880Z,25.70
2023-05-09T07:38:02.155Z,27.17
2023-05-09T07:41:05.680Z,26.73
2023-05-09T07:44:10.249Z,46.10
2023-05-09T07:50:17.769Z,28.67
2023-05-09T07:53:21.740Z,27.33
2023-05-09T07:56:24.917Z,28.17
2023-05-09T07:59:28.204Z,28.65
2023-05-09T08:02:31.815Z,28.25
2023-05-09T08:05:35.131Z,26.03
2023-05-09T08:08:39.057Z,25.30
2023-05-09T08:11:42.458Z,30.42
2023-05-09T08:14:45.715Z,36.15
2023-05-09T08:17:48.965Z,27.40
2023-05-09T08:20:52.320Z,32.55
2023-05-09T08:23:56.509Z,30.92
2023-05-09T08:26:59.639Z,28.92
2023-05-09T08:30:02.914Z,28.15
2023-05-09T08:33:06.142Z,31.75
2023-05-09T08:36:09.848Z,31.40
2023-05-09T08:39:13.052Z,30.97
2023-05-09T08:42:20.664Z,39.67
2023-05-09T08:45:30.364Z,35.80
2023-05-09T08:48:38.729Z,34.85
2023-05-09T08:51:42.124Z,28.63
2023-05-09T08:54:45.600Z,29.35
2023-05-09T08:57:49.391Z,33.20
2023-05-09T09:00:53.569Z,32.75
2023-05-09T09:03:57.275Z,34.05
2023-05-09T09:07:01.393Z,35.17
2023-05-09T09:10:05.427Z,40.67
2023-05-09T09:13:11.036Z,32.70
2023-05-09T09:16:23.140Z,32.97
2023-05-09T09:19:31.951Z,33.80
2023-05-09T09:22:36.429Z,32.15
2023-05-09T09:25:39.661Z,33.33
2023-05-09T09:28:43.580Z,34.20
2023-05-09T09:31:48.255Z,36.13
2023-05-09T09:34:51.607Z,34.55
2023-05-09T09:38:02.243Z,35.72
2023-05-09T09:41:05.320Z,33.97
2023-05-09T09:44:20.235Z,37.70
2023-05-09T09:47:32.852Z,38.92
2023-05-09T09:50:36.006Z,35.03
2023-05-09T09:53:44.119Z,37.22
2023-05-09T09:56:53.976Z,30.40
2023-05-09T10:00:00.570Z,36.22
2023-05-09T10:03:04.154Z,35.67
2023-05-09T10:06:11.996Z,43.57
2023-05-09T10:09:15.135Z,40.53
2023-05-09T10:12:20.765Z,43.72
2023-05-09T10:15:24.634Z,63.88
2023-05-09T10:18:32.275Z,38.15
2023-05-09T10:21:37.953Z,37.58
2023-05-09T10:24:57.895Z,36.95
2023-05-09T10:28:02.598Z,37.88
2023-05-09T10:31:11.541Z,33.40
2023-05-09T10:34:16.071Z,36.25
2023-05-09T10:40:25.343Z,35.42
2023-05-09T10:43:29.483Z,39.85
2023-05-09T10:46:33.121Z,37.97
2023-05-09T10:49:37.289Z,40.60
2023-05-09T10:53:05.705Z,40.25
2023-05-09T10:56:09.058Z,49.67
2023-05-09T10:59:41.957Z,36.83
2023-05-09T11:03:11.009Z,40.30
2023-05-09T11:06:52.225Z,35.58
2023-05-09T11:10:15.315Z,40.78
2023-05-09T11:13:25.209Z,36.88
2023-05-09T11:16:28.870Z,37.70
2023-05-09T11:20:02.306Z,38.25
2023-05-09T11:23:06.720Z,43.67
2023-05-09T11:26:10.281Z,47.90
2023-05-09T11:29:13.673Z,37.03
2023-05-09T11:32:17.070Z,44.67
2023-05-09T11:35:22.637Z,37.65
2023-05-09T11:38:26.308Z,44.60
2023-05-09T11:41:30.680Z,40.67
2023-05-09T11:44:36.167Z,43.25
2023-05-09T11:47:40.177Z,48.50
2023-05-09T11:50:43.879Z,51.47
2023-05-09T11:53:51.408Z,47.15
2023-05-09T11:56:54.651Z,44.80
2023-05-09T12:00:00.943Z,45.35
2023-05-09T12:03:06.620Z,48.20
2023-05-09T12:06:10.341Z,49.35
2023-05-09T12:09:14.642Z,43.90
2023-05-09T12:12:21.503Z,39.88
2023-05-09T12:15:25.159Z,41.38
2023-05-09T12:18:28.496Z,43.03
2023-05-09T12:21:32.133Z,41.53
2023-05-09T12:24:37.612Z,43.53
2023-05-09T12:27:41.985Z,43.00
2023-05-09T12:30:45.903Z,38.75
2023-05-09T12:33:49.430Z,41.10
2023-05-09T12:36:52.852Z,38.45
2023-05-09T12:40:16.099Z,36.67
2023-05-09T12:43:19.494Z,40.17
2023-05-09T12:46:23.317Z,37.40
2023-05-09T12:49:27.596Z,42.83
2023-05-09T12:52:50.702Z,36.95
2023-05-09T12:56:06.537Z,38.35
2023-05-09T12:59:12.275Z,41.00
2023-05-09T13:02:15.655Z,39.47
2023-05-09T13:05:23.504Z,40.63
2023-05-09T13:08:27.293Z,42.05
2023-05-09T13:11:31.321Z,42.33
2023-05-09T13:14:34.742Z,44.38
2023-05-09T13:17:38.519Z,42.92
2023-05-09T13:20:41.787Z,42.00
2023-05-09T13:23:46.309Z,44.10
2023-05-09T13:26:50.224Z,45.55
2023-05-09T13:29:53.635Z,43.20
2023-05-09T13:32:57.011Z,44.10
2023-05-09T13:36:00.320Z,43.08
2023-05-09T13:39:03.941Z,41.55
2023-05-09T13:42:07.262Z,42.30
2023-05-09T13:45:10.926Z,44.13
2023-05-09T13:48:14.281Z,40.65
2023-05-09T13:51:17.874Z,45.63
2023-05-09T13:54:22.613Z,50.70
2023-05-09T13:57:25.820Z,47.90
2023-05-09T14:00:29.596Z,41.13
2023-05-09T14:03:32.903Z,45.72
2023-05-09T14:06:36.418Z,40.90
2023-05-09T14:09:40.788Z,46.60
2023-05-09T14:12:48.012Z,38.35
2023-05-09T14:15:51.297Z,44.60
2023-05-09T14:18:54.574Z,44.45
2023-05-09T14:21:57.957Z,43.75
2023-05-09T14:25:01.694Z,43.03
2023-05-09T14:28:05.170Z,39.95
2023-05-09T14:31:08.398Z,41.63
2023-05-09T14:34:12.140Z,41.80
2023-05-09T14:37:15.454Z,50.80
2023-05-09T14:40:18.886Z,48.33
2023-05-09T14:43:22.929Z,46.42
2023-05-09T14:46:26.453Z,45.60
2023-05-09T14:49:29.751Z,45.75
2023-05-09T14:52:33.065Z,45.40
2023-05-09T14:55:37.017Z,48.00
2023-05-09T14:58:40.420Z,41.43
2023-05-09T15:01:43.602Z,43.03
2023-05-09T15:04:46.916Z,41.47
2023-05-09T15:07:50.259Z,46.58
2023-05-09T15:10:53.866Z,48.78
2023-05-09T15:13:57.341Z,40.95
2023-05-09T15:17:03.781Z,45.40
2023-05-09T15:20:08.197Z,40.50
2023-05-09T15:23:13.749Z,41.75
2023-05-09T15:26:17.723Z,41.75
2023-05-09T15:29:22.529Z,38.60
2023-05-09T15:35:28.994Z,38.15
2023-05-09T15:38:32.278Z,39.72
2023-05-09T15:41:35.492Z,41.92
2023-05-09T15:44:42.146Z,54.35
2023-05-09T15:47:45.426Z,55.60
2023-05-09T15:50:49.188Z,48.03
2023-05-09T15:53:52.737Z,46.50
2023-05-09T15:56:56.620Z,45.42
2023-05-09T15:59:59.817Z,40.63
2023-05-09T16:03:03.109Z,43.08
2023-05-09T16:06:07.074Z,40.22
2023-05-09T16:09:10.525Z,38.87
2023-05-09T16:12:14.469Z,36.38
2023-05-09T16:15:17.605Z,37.25
2023-05-09T16:18:20.829Z,40.85
2023-05-09T16:21:26.964Z,39.53
2023-05-09T16:24:32.302Z,39.05
2023-05-09T16:27:35.554Z,38.70
2023-05-09T16:30:38.890Z,40.17
2023-05-09T16:33:42.182Z,41.20
2023-05-09T16:36:47.058Z,61.75
2023-05-09T16:42:54.527Z,71.63
2023-05-09T16:45:58.355Z,72.90
2023-05-09T16:49:01.633Z,53.38
2023-05-09T16:52:05.040Z,45.42
2023-05-09T16:55:08.902Z,58.50
2023-05-09T16:58:12.327Z,64.03
2023-05-09T17:01:16.444Z,70.70
2023-05-09T17:04:19.717Z,72.03
2023-05-09T17:07:23.060Z,46.58
2023-05-09T17:10:26.416Z,40.60
2023-05-09T17:13:29.838Z,41.05
2023-05-09T17:16:33.862Z,45.95
2023-05-09T17:19:38.818Z,44.70
2023-05-09T17:22:42.056Z,41.70
2023-05-09T17:25:46.232Z,42.92
2023-05-09T17:28:50.428Z,42.15
2023-05-09T17:31:53.778Z,48.40
2023-05-09T17:34:57.044Z,46.63
2023-05-09T17:38:00.234Z,47.35
2023-05-09T17:41:03.532Z,56.55
2023-05-09T17:44:06.688Z,52.75
2023-05-09T17:47:10.148Z,54.90
2023-05-09T17:50:17.870Z,49.28
2023-05-09T17:53:21.274Z,46.28
2023-05-09T17:56:24.718Z,45.58
2023-05-09T17:59:28.647Z,48.78
2023-05-09T18:02:31.866Z,43.05
2023-05-09T18:05:35.374Z,39.03
2023-05-09T18:08:38.683Z,49.55
2023-05-09T18:11:42.117Z,40.53
2023-05-09T18:14:45.424Z,41.35
2023-05-09T18:17:50.148Z,44.90
2023-05-09T18:20:53.313Z,43.97
2023-05-09T18:23:56.564Z,45.53
2023-05-09T18:26:59.837Z,39.50
2023-05-09T18:30:03.090Z,41.13
2023-05-09T18:33:06.455Z,41.05
2023-05-09T18:36:11.647Z,43.88
2023-05-09T18:39:15.775Z,39.33
2023-05-09T18:42:18.939Z,39.88
2023-05-09T18:45:22.214Z,40.28
2023-05-09T18:48:26.325Z,39.50
2023-05-09T18:51:30.464Z,43.17
2023-05-09T18:54:33.673Z,40.13
2023-05-09T18:57:36.913Z,45.85
2023-05-09T19:00:40.784Z,38.28
2023-05-09T19:03:46.706Z,40.00
2023-05-09T19:06:50.109Z,59.33
2023-05-09T19:09:53.431Z,42.90
2023-05-09T19:12:57.329Z,44.65
2023-05-09T19:16:00.596Z,37.27
2023-05-09T19:19:03.732Z,40.35
2023-05-09T19:22:07.396Z,43.42
2023-05-09T19:25:10.799Z,41.58
2023-05-09T19:28:15.242Z,40.60
2023-05-09T19:31:19.502Z,41.75
2023-05-09T19:34:23.544Z,45.42
2023-05-09T19:37:26.742Z,36.70
2023-05-09T19:40:30.871Z,39.10
2023-05-09T19:43:34.001Z,37.60
2023-05-09T19:46:38.712Z,39.72
2023-05-09T19:52:46.773Z,42.15
2023-05-09T19:55:49.887Z,41.60
2023-05-09T19:58:53.103Z,42.30
2023-05-09T20:01:56.270Z,39.72
2023-05-09T20:04:59.676Z,36.25
2023-05-09T20:08:03.075Z,37.40
2023-05-09T20:11:06.348Z,41.30
2023-05-09T20:14:09.659Z,41.28
2023-05-09T20:17:12.768Z,40.55
2023-05-09T20:20:16.156Z,47.10
2023-05-09T20:23:19.486Z,49.15
2023-05-09T20:26:25.013Z,47.30
2023-05-09T20:29:28.425Z,45.75
2023-05-09T20:32:33.836Z,55.15
2023-05-09T20:35:37.076Z,53.97
2023-05-09T20:38:40.244Z,48.70
2023-05-09T20:41:43.414Z,58.80
2023-05-09T20:44:48.203Z,56.70
2023-05-09T20:47:51.395Z,65.32
2023-05-09T20:50:54.568Z,52.67
2023-05-09T20:53:58.003Z,59.63
2023-05-09T20:57:01.165Z,50.88
2023-05-09T21:00:04.651Z,45.17
2023-05-09T21:03:09.727Z,74.55
2023-05-09T21:06:13.136Z,63.35
2023-05-09T21:09:16.352Z,45.67
2023-05-09T21:12:19.448Z,52.38
2023-05-09T21:15:22.562Z,42.28
2023-05-09T21:18:26.035Z,42.05
2023-05-09T21:21:33.759Z,44.15
2023-05-09T21:24:36.968Z,42.50
2023-05-09T21:27:40.196Z,44.90
2023-05-09T21:30:43.454Z,48.35
2023-05-09T21:33:46.591Z,52.45
2023-05-09T21:36:49.853Z,45.20
2023-05-09T21:39:53.049Z,44.78
2023-05-09T21:42:56.226Z,42.20
2023-05-09T21:45:59.824Z,44.97
2023-05-09T21:49:03.042Z,40.58
2023-05-09T21:52:06.251Z,40.85
2023-05-09T21:55:09.899Z,44.22
2023-05-09T21:58:13.027Z,45.10
2023-05-09T22:01:17.339Z,42.25
2023-05-09T22:04:20.529Z,40.97
2023-05-09T22:07:23.772Z,43.58
2023-05-09T22:10:27.128Z,44.53
2023-05-09T22:13:30.432Z,40.40
2023-05-09T22:16:33.775Z,52.67
2023-05-09T22:19:37.285Z,43.95
2023-05-09T22:22:40.507Z,44.38
2023-05-09T22:25:43.731Z,40.00
2023-05-09T22:28:46.946Z,40.05
2023-05-09T22:31:50.212Z,40.72
2023-05-09T22:34:54.804Z,40.60
2023-05-09T22:37:57.957Z,41.17
2023-05-09T22:41:01.255Z,43.08
2023-05-09T22:44:04.550Z,58.97
2023-05-09T22:47:11.156Z,49.95
2023-05-09T22:50:14.626Z,40.90
2023-05-09T22:53:18.852Z,52.23
2023-05-09T22:56:22.877Z,71.72
2023-05-09T22:59:26.056Z,53.60
2023-05-09T23:02:29.613Z,49.75
2023-05-09T23:05:32.751Z,55.77
2023-05-09T23:08:36.147Z,46.67
2023-05-09T23:11:39.341Z,67.22
2023-05-09T23:14:42.843Z,57.92
2023-05-09T23:17:46.160Z,39.67
2023-05-09T23:20:49.271Z,45.55
2023-05-09T23:23:52.443Z,42.05
2023-05-09T23:26:55.647Z,43.67
2023-05-09T23:29:59.219Z,42.80
2023-05-09T23:33:02.712Z,39.35
2023-05-09T23:36:06.297Z,45.63
2023-05-09T23:39:09.922Z,44.15
2023-05-09T23:42:13.212Z,39.10
2023-05-09T23:45:16.486Z,37.17
2023-05-09T23:48:19.766Z,45.53
2023-05-09T23:51:23.293Z,36.97
2023-05-09T23:54:27.577Z,34.47
2023-05-09T23:57:30.717Z,36.05
